Time;durP1;ratioP1;P1;durP2;ratioP2;P2;SDS_P1;SDS_P2;PMS_P1;PMS_P2;Temp;Humidity;BMP_temperature;BMP_pressure;BME280_temperature;BME280_humidity;BME280_pressure;Samples;Min_cycle;Max_cycle;Signal;HPM_P1;HPM_P2
2021/05/10 00:00:42;;;;;;;;;;;20.70;56.90;;;;;;5025724;28;20334;-79
2021/05/10 00:03:08;;;;;;;;;;;20.70;56.90;;;;;;5025625;28;20013;-80
2021/05/10 00:05:38;;;;;;;;;;;20.70;56.90;;;;;;5049120;28;19917;-79
2021/05/10 00:08:04;;;;;;;;;;;20.70;56.90;;;;;;5034467;28;19917;-79
2021/05/10 00:10:35;;;;;;;;;;;20.70;56.90;;;;;;5043330;28;19925;-79
2021/05/10 00:13:02;;;;;;;;;;;20.70;56.90;;;;;;5036022;28;19971;-80
2021/05/10 00:15:32;;;;;;;;;;;20.70;56.90;;;;;;5043694;28;20393;-81
2021/05/10 00:18:04;;;;;;;;;;;20.70;56.90;;;;;;5037197;28;20351;-80
2021/05/10 00:20:38;;;;;;;;;;;20.70;56.90;;;;;;5031382;28;19920;-79
2021/05/10 00:23:04;;;;;;;;;;;20.70;56.90;;;;;;5034072;28;19924;-79
2021/05/10 00:25:30;;;;;;;;;;;20.70;56.90;;;;;;5030371;28;19917;-79
2021/05/10 00:27:56;;;;;;;;;;;20.70;56.90;;;;;;5034049;28;20359;-79
2021/05/10 00:30:22;;;;;;;;;;;20.70;56.90;;;;;;5032280;28;19921;-79
2021/05/10 00:32:48;;;;;;;;;;;20.70;56.80;;;;;;5027996;28;19928;-79
2021/05/10 00:35:14;;;;;;;;;;;20.70;56.90;;;;;;5023736;28;20314;-80
2021/05/10 00:37:39;;;;;;;;;;;20.70;56.80;;;;;;5032834;28;20000;-79
2021/05/10 00:40:11;;;;;;;;;;;20.70;56.80;;;;;;5034430;28;19920;-79
2021/05/10 00:42:38;;;;;;;;;;;20.70;56.80;;;;;;5034015;28;20015;-79
2021/05/10 00:45:04;;;;;;;;;;;20.70;56.80;;;;;;5031546;28;19917;-80
2021/05/10 00:47:30;;;;;;;;;;;20.70;56.80;;;;;;5033127;28;19921;-80
2021/05/10 00:49:55;;;;;;;;;;;20.70;56.80;;;;;;5034018;28;20600;-80
2021/05/10 00:52:21;;;;;;;;;;;20.70;56.80;;;;;;5032172;28;19952;-79
2021/05/10 00:54:48;;;;;;;;;;;20.60;56.80;;;;;;5031476;28;20410;-79
2021/05/10 00:57:19;;;;;;;;;;;20.70;56.90;;;;;;5048891;28;20251;-80
2021/05/10 00:59:45;;;;;;;;;;;20.70;56.90;;;;;;5027119;28;19920;-79
2021/05/10 01:02:11;;;;;;;;;;;20.70;56.80;;;;;;5031669;28;19917;-80
2021/05/10 01:04:36;;;;;;;;;;;20.70;56.80;;;;;;5032948;28;19948;-79
2021/05/10 01:07:02;;;;;;;;;;;20.70;56.80;;;;;;5020410;28;20385;-79
2021/05/10 01:09:32;;;;;;;;;;;20.70;56.80;;;;;;5041159;28;19967;-80
2021/05/10 01:12:03;;;;;;;;;;;20.70;56.80;;;;;;5053249;28;19916;-80
2021/05/10 01:14:29;;;;;;;;;;;20.70;57.00;;;;;;5035572;28;20376;-80
2021/05/10 01:17:08;;;;;;;;;;;20.70;57.00;;;;;;5049222;28;19963;-79
2021/05/10 01:19:35;;;;;;;;;;;20.70;56.90;;;;;;5053005;28;19919;-80
2021/05/10 01:22:07;;;;;;;;;;;20.70;56.90;;;;;;5029673;28;20324;-79
2021/05/10 01:24:33;;;;;;;;;;;20.70;57.00;;;;;;5051302;28;20393;-80
2021/05/10 01:26:58;;;;;;;;;;;20.70;56.90;;;;;;5034434;28;19913;-80
2021/05/10 01:29:26;;;;;;;;;;;20.70;56.90;;;;;;5053233;28;19916;-80
2021/05/10 01:31:51;;;;;;;;;;;20.70;56.90;;;;;;5034906;28;19917;-80
2021/05/10 01:34:18;;;;;;;;;;;20.70;56.90;;;;;;5052311;28;20316;-80
2021/05/10 01:36:43;;;;;;;;;;;20.70;56.90;;;;;;5031856;28;20458;-79
2021/05/10 01:39:09;;;;;;;;;;;20.70;56.90;;;;;;5038432;28;20007;-80
2021/05/10 01:41:34;;;;;;;;;;;20.70;56.80;;;;;;5028981;28;20011;-80
2021/05/10 01:44:00;;;;;;;;;;;20.70;56.90;;;;;;5051339;28;20361;-80
2021/05/10 01:46:26;;;;;;;;;;;20.70;56.80;;;;;;5037083;28;19916;-81
2021/05/10 01:48:51;;;;;;;;;;;20.70;56.80;;;;;;5033801;28;19971;-81
2021/05/10 01:51:21;;;;;;;;;;;20.70;56.90;;;;;;5032294;28;19921;-80
2021/05/10 01:53:47;;;;;;;;;;;20.70;56.80;;;;;;5051171;28;20693;-80
2021/05/10 01:56:12;;;;;;;;;;;20.70;56.80;;;;;;5038663;28;19948;-79
2021/05/10 01:58:38;;;;;;;;;;;20.70;56.80;;;;;;5034749;28;19952;-80
2021/05/10 02:01:03;;;;;;;;;;;20.70;56.80;;;;;;5035262;28;19919;-80
2021/05/10 02:03:29;;;;;;;;;;;20.70;56.80;;;;;;5050348;28;19963;-79
2021/05/10 02:05:55;;;;;;;;;;;20.70;56.80;;;;;;5048375;28;19928;-80
2021/05/10 02:08:23;;;;;;;;;;;20.70;56.80;;;;;;5031828;28;19959;-79
2021/05/10 02:10:50;;;;;;;;;;;20.70;56.80;;;;;;5027814;28;19913;-80
2021/05/10 02:13:20;;;;;;;;;;;20.70;56.80;;;;;;5049044;28;20401;-79
2021/05/10 02:16:01;;;;;;;;;;;20.60;56.80;;;;;;5052415;28;19917;-80
2021/05/10 02:18:33;;;;;;;;;;;20.70;56.80;;;;;;5038108;28;19920;-79
2021/05/10 02:20:59;;;;;;;;;;;20.70;56.70;;;;;;5033082;28;19913;-79
2021/05/10 02:23:29;;;;;;;;;;;20.60;56.70;;;;;;5051639;28;19924;-80
2021/05/10 02:25:56;;;;;;;;;;;20.70;56.70;;;;;;5034340;28;19925;-79
2021/05/10 02:28:27;;;;;;;;;;;20.70;56.80;;;;;;5047684;28;20374;-79
2021/05/10 02:30:54;;;;;;;;;;;20.60;56.70;;;;;;5034963;28;20354;-79
2021/05/10 02:33:24;;;;;;;;;;;20.70;56.80;;;;;;5048141;28;19912;-79
2021/05/10 02:35:51;;;;;;;;;;;20.60;56.70;;;;;;5030548;28;20332;-80
2021/05/10 02:38:17;;;;;;;;;;;20.70;56.70;;;;;;5033817;28;19917;-80
2021/05/10 02:40:43;;;;;;;;;;;20.70;56.70;;;;;;5046506;28;19913;-80
2021/05/10 02:43:09;;;;;;;;;;;20.60;56.70;;;;;;5048605;28;20004;-79
2021/05/10 02:45:35;;;;;;;;;;;20.60;56.70;;;;;;5049307;28;20020;-79
2021/05/10 02:48:00;;;;;;;;;;;20.70;56.70;;;;;;5030957;28;19936;-79
2021/05/10 02:50:27;;;;;;;;;;;20.60;56.70;;;;;;5039582;28;20286;-80
2021/05/10 02:52:52;;;;;;;;;;;20.60;56.70;;;;;;5040081;28;19921;-80
2021/05/10 02:55:26;;;;;;;;;;;20.60;56.70;;;;;;5033288;28;19920;-79
2021/05/10 02:57:57;;;;;;;;;;;20.70;56.70;;;;;;5047037;28;19921;-79
2021/05/10 03:00:23;;;;;;;;;;;20.60;56.70;;;;;;5028758;28;19928;-79
2021/05/10 03:02:52;;;;;;;;;;;20.70;56.70;;;;;;5055536;28;19920;-80
2021/05/10 03:05:32;;;;;;;;;;;20.60;56.60;;;;;;5036840;28;19916;-80
2021/05/10 03:07:58;;;;;;;;;;;20.60;56.70;;;;;;5031712;28;20005;-80
2021/05/10 03:10:24;;;;;;;;;;;20.60;56.60;;;;;;5050244;28;19921;-79
2021/05/10 03:12:50;;;;;;;;;;;20.60;56.60;;;;;;5038012;28;19913;-80
2021/05/10 03:15:17;;;;;;;;;;;20.60;56.60;;;;;;5048454;28;19948;-80
2021/05/10 03:17:44;;;;;;;;;;;20.60;56.60;;;;;;5036220;28;20015;-80
2021/05/10 03:20:11;;;;;;;;;;;20.60;56.60;;;;;;5053411;28;19920;-79
2021/05/10 03:22:51;;;;;;;;;;;20.60;56.50;;;;;;5054766;28;20294;-80
2021/05/10 03:25:17;;;;;;;;;;;20.60;56.50;;;;;;5052321;28;19999;-80
2021/05/10 03:27:54;;;;;;;;;;;20.60;56.50;;;;;;5038630;28;20032;-80
2021/05/10 03:30:20;;;;;;;;;;;20.60;56.50;;;;;;5051813;28;19919;-79
2021/05/10 03:32:46;;;;;;;;;;;20.60;56.50;;;;;;5055287;28;19913;-79
2021/05/10 03:35:17;;;;;;;;;;;20.60;56.40;;;;;;5025241;28;19936;-79
2021/05/10 03:37:48;;;;;;;;;;;20.60;56.40;;;;;;5050377;28;19913;-80
2021/05/10 03:40:14;;;;;;;;;;;20.60;56.50;;;;;;5035769;28;20105;-79
2021/05/10 03:42:40;;;;;;;;;;;20.60;56.40;;;;;;5054268;28;19917;-79
2021/05/10 03:45:07;;;;;;;;;;;20.60;56.30;;;;;;5030322;28;19986;-79
2021/05/10 03:47:38;;;;;;;;;;;20.60;56.20;;;;;;5049829;28;19956;-79
2021/05/10 03:50:08;;;;;;;;;;;20.60;56.20;;;;;;5034164;28;19913;-79
2021/05/10 03:52:34;;;;;;;;;;;20.60;56.20;;;;;;5039942;28;19920;-79
2021/05/10 03:54:59;;;;;;;;;;;20.60;56.10;;;;;;5033090;28;19912;-80
2021/05/10 03:57:25;;;;;;;;;;;20.60;56.10;;;;;;5055042;28;19913;-79
2021/05/10 03:59:50;;;;;;;;;;;20.60;56.40;;;;;;5037528;28;19943;-79
2021/05/10 04:02:16;;;;;;;;;;;20.60;56.60;;;;;;5054595;28;19928;-79
2021/05/10 04:04:50;;;;;;;;;;;20.70;56.80;;;;;;5052591;28;19931;-79
2021/05/10 04:15:12;;;;;;;;;;;20.70;57.00;;;;;;5052245;28;19920;-79
2021/05/10 04:17:42;;;;;;;;;;;20.70;56.80;;;;;;5053730;28;19913;-79
2021/05/10 04:20:08;;;;;;;;;;;20.70;56.80;;;;;;5052268;28;19913;-80
2021/05/10 04:22:33;;;;;;;;;;;20.70;56.70;;;;;;5051977;28;19978;-80
2021/05/10 04:24:59;;;;;;;;;;;20.70;56.60;;;;;;5052952;28;19916;-79
2021/05/10 04:27:26;;;;;;;;;;;20.70;56.50;;;;;;5053292;28;19935;-79
2021/05/10 04:29:52;;;;;;;;;;;20.70;56.50;;;;;;5052896;28;20011;-79
2021/05/10 04:32:22;;;;;;;;;;;20.70;56.40;;;;;;5031440;28;19974;-79
2021/05/10 04:34:48;;;;;;;;;;;20.70;56.30;;;;;;5053481;28;19913;-80
2021/05/10 04:37:14;;;;;;;;;;;20.70;56.30;;;;;;5053405;28;19920;-80
2021/05/10 04:39:42;;;;;;;;;;;20.70;56.30;;;;;;5052838;28;19913;-80
2021/05/10 04:42:08;;;;;;;;;;;20.70;56.20;;;;;;5044696;28;19976;-80
2021/05/10 04:44:33;;;;;;;;;;;20.70;56.20;;;;;;5036169;28;19975;-80
2021/05/10 04:47:04;;;;;;;;;;;20.80;56.00;;;;;;5035236;28;20377;-80
2021/05/10 04:49:29;;;;;;;;;;;20.80;56.10;;;;;;5052440;28;20254;-79
2021/05/10 04:51:55;;;;;;;;;;;20.80;56.20;;;;;;5052288;28;19974;-79
2021/05/10 04:54:25;;;;;;;;;;;20.80;56.20;;;;;;5038813;28;20015;-80
2021/05/10 04:56:51;;;;;;;;;;;20.80;56.20;;;;;;5034584;28;20273;-80
2021/05/10 04:59:21;;;;;;;;;;;20.80;56.20;;;;;;5036564;28;19924;-79
2021/05/10 05:01:46;;;;;;;;;;;20.80;56.10;;;;;;5052219;28;19921;-80
2021/05/10 05:04:12;;;;;;;;;;;20.80;56.10;;;;;;5048756;28;19916;-79
2021/05/10 05:06:42;;;;;;;;;;;20.80;56.10;;;;;;5053088;28;19913;-80
2021/05/10 05:09:08;;;;;;;;;;;20.80;56.10;;;;;;5034500;28;19928;-80
2021/05/10 05:11:33;;;;;;;;;;;20.80;56.30;;;;;;5033271;28;19913;-79
2021/05/10 05:13:59;;;;;;;;;;;20.80;56.50;;;;;;5033113;28;20407;-81
2021/05/10 05:16:24;;;;;;;;;;;20.80;56.50;;;;;;5032946;28;19929;-79
2021/05/10 05:18:50;;;;;;;;;;;20.80;56.50;;;;;;5048003;28;19979;-80
2021/05/10 05:21:23;;;;;;;;;;;20.90;56.40;;;;;;5036012;28;19913;-80
2021/05/10 05:23:49;;;;;;;;;;;20.80;56.50;;;;;;5032530;28;19963;-79
2021/05/10 05:26:19;;;;;;;;;;;20.80;56.40;;;;;;5031432;28;19917;-80
2021/05/10 05:28:45;;;;;;;;;;;20.80;56.40;;;;;;5047851;28;19952;-80
2021/05/10 05:31:23;;;;;;;;;;;20.90;56.40;;;;;;5027868;28;19963;-79
2021/05/10 05:33:48;;;;;;;;;;;20.90;56.40;;;;;;5031948;28;19937;-79
2021/05/10 05:36:14;;;;;;;;;;;20.90;56.40;;;;;;5032737;28;19940;-80
2021/05/10 05:38:44;;;;;;;;;;;20.90;56.40;;;;;;5032933;28;19920;-79
2021/05/10 05:41:15;;;;;;;;;;;20.90;56.40;;;;;;5026442;28;20418;-79
2021/05/10 05:43:52;;;;;;;;;;;20.90;56.30;;;;;;5028582;28;19917;-80
2021/05/10 05:46:26;;;;;;;;;;;20.90;56.20;;;;;;5049055;28;20389;-80
2021/05/10 05:48:57;;;;;;;;;;;20.90;56.20;;;;;;5031325;28;20000;-80
2021/05/10 05:51:22;;;;;;;;;;;21.00;56.20;;;;;;5029660;28;20008;-79
2021/05/10 05:53:51;;;;;;;;;;;21.00;56.10;;;;;;5028993;28;20065;-80
2021/05/10 05:56:16;;;;;;;;;;;21.00;56.10;;;;;;5034992;28;19953;-80
2021/05/10 05:58:42;;;;;;;;;;;21.00;56.00;;;;;;5029340;28;19964;-79
2021/05/10 06:01:07;;;;;;;;;;;21.00;56.00;;;;;;5033427;28;19952;-80
2021/05/10 06:03:33;;;;;;;;;;;21.00;56.10;;;;;;5032498;28;19925;-78
2021/05/10 06:05:58;;;;;;;;;;;21.00;56.10;;;;;;5031853;28;19921;-79
2021/05/10 06:08:24;;;;;;;;;;;21.00;56.30;;;;;;5030246;28;20302;-80
2021/05/10 06:10:55;;;;;;;;;;;21.00;56.40;;;;;;5048084;28;19952;-81
2021/05/10 06:13:20;;;;;;;;;;;21.00;56.30;;;;;;5051263;28;19913;-79
2021/05/10 06:15:46;;;;;;;;;;;21.00;56.40;;;;;;5033749;28;19962;-79
2021/05/10 06:18:12;;;;;;;;;;;21.00;56.50;;;;;;5051656;28;19967;-79
2021/05/10 06:20:42;;;;;;;;;;;21.00;56.60;;;;;;5043833;28;19912;-81
2021/05/10 06:23:08;;;;;;;;;;;21.00;56.60;;;;;;5033820;28;20396;-79
2021/05/10 06:25:34;;;;;;;;;;;21.00;56.80;;;;;;5034031;28;19918;-80
2021/05/10 06:28:04;;;;;;;;;;;21.10;56.80;;;;;;5053896;28;19920;-80
2021/05/10 06:30:35;;;;;;;;;;;21.10;56.70;;;;;;5032664;28;20277;-79
2021/05/10 06:33:00;;;;;;;;;;;21.10;56.60;;;;;;5029937;28;20015;-79
2021/05/10 06:35:34;;;;;;;;;;;21.10;56.60;;;;;;5053784;28;20013;-80
2021/05/10 06:38:02;;;;;;;;;;;21.10;56.50;;;;;;5052556;28;20396;-80
2021/05/10 06:40:29;;;;;;;;;;;21.10;56.50;;;;;;5053630;28;19917;-80
2021/05/10 06:42:59;;;;;;;;;;;21.10;56.40;;;;;;5052775;28;19925;-80
2021/05/10 06:45:39;;;;;;;;;;;21.10;56.40;;;;;;5034217;28;19917;-80
2021/05/10 06:48:24;;;;;;;;;;;21.10;56.30;;;;;;5054686;28;19913;-78
2021/05/10 06:50:50;;;;;;;;;;;21.10;56.20;;;;;;5055016;28;20000;-77
2021/05/10 06:53:22;;;;;;;;;;;21.10;56.10;;;;;;5038720;28;20003;-80
2021/05/10 06:56:02;;;;;;;;;;;21.20;56.00;;;;;;5053599;28;19917;-79
2021/05/10 06:58:28;;;;;;;;;;;21.20;55.80;;;;;;5036180;28;20384;-79
2021/05/10 07:00:56;;;;;;;;;;;21.20;55.70;;;;;;5037298;28;19920;-79
2021/05/10 07:03:27;;;;;;;;;;;21.20;55.60;;;;;;5030512;28;20298;-79
2021/05/10 07:05:53;;;;;;;;;;;21.30;55.50;;;;;;5035977;28;19925;-79
2021/05/10 07:08:21;;;;;;;;;;;21.30;55.30;;;;;;5053265;28;19912;-79
2021/05/10 07:10:48;;;;;;;;;;;21.30;55.20;;;;;;5038162;28;19916;-79
2021/05/10 07:13:25;;;;;;;;;;;21.30;55.10;;;;;;5055253;28;20004;-79
2021/05/10 07:15:51;;;;;;;;;;;21.30;55.00;;;;;;5035111;28;19913;-80
2021/05/10 07:18:16;;;;;;;;;;;21.30;55.00;;;;;;5053762;28;19923;-79
2021/05/10 07:20:43;;;;;;;;;;;21.30;54.90;;;;;;5054732;28;19913;-79
2021/05/10 07:23:09;;;;;;;;;;;21.30;54.90;;;;;;5037557;28;19917;-79
2021/05/10 07:25:40;;;;;;;;;;;21.30;55.10;;;;;;5054397;28;19921;-78
2021/05/10 07:28:06;;;;;;;;;;;21.40;55.40;;;;;;5030925;28;20366;-79
2021/05/10 07:30:36;;;;;;;;;;;21.30;55.50;;;;;;5053834;28;19913;-79
2021/05/10 07:33:02;;;;;;;;;;;21.30;55.70;;;;;;5038891;28;20385;-80
2021/05/10 07:35:27;;;;;;;;;;;21.40;55.70;;;;;;5036076;28;19912;-79
2021/05/10 07:37:53;;;;;;;;;;;21.30;55.70;;;;;;5053037;28;19966;-79
2021/05/10 07:40:23;;;;;;;;;;;21.40;55.80;;;;;;5058113;28;19936;-79
2021/05/10 07:42:49;;;;;;;;;;;21.40;55.90;;;;;;5026595;28;19939;-79
2021/05/10 07:45:14;;;;;;;;;;;21.40;56.00;;;;;;5034633;28;19916;-80
2021/05/10 07:47:40;;;;;;;;;;;21.40;56.00;;;;;;5036689;28;20011;-79
2021/05/10 07:50:06;;;;;;;;;;;21.40;56.00;;;;;;5036187;28;19913;-81
2021/05/10 07:52:31;;;;;;;;;;;21.40;56.00;;;;;;5053924;28;19920;-79
2021/05/10 07:54:57;;;;;;;;;;;21.40;56.00;;;;;;5054512;28;19920;-79
2021/05/10 07:57:27;;;;;;;;;;;21.40;56.00;;;;;;5054312;28;20015;-81
2021/05/10 07:59:53;;;;;;;;;;;21.50;55.80;;;;;;5035358;28;19913;-80
2021/05/10 08:02:23;;;;;;;;;;;21.50;55.80;;;;;;5051772;28;19931;-79
2021/05/10 08:04:52;;;;;;;;;;;21.50;55.80;;;;;;5036834;28;20378;-79
2021/05/10 08:07:18;;;;;;;;;;;21.50;55.70;;;;;;5029470;28;19957;-80
2021/05/10 08:09:43;;;;;;;;;;;21.50;55.70;;;;;;5047105;28;19921;-80
2021/05/10 08:12:09;;;;;;;;;;;21.50;55.70;;;;;;5061837;28;20111;-79
2021/05/10 08:14:35;;;;;;;;;;;21.40;55.70;;;;;;5037044;28;19912;-79
2021/05/10 08:17:02;;;;;;;;;;;21.50;55.70;;;;;;5036683;28;21543;-79
2021/05/10 08:19:28;;;;;;;;;;;21.50;55.60;;;;;;5040837;28;19913;-79
2021/05/10 08:21:56;;;;;;;;;;;21.50;55.70;;;;;;5053377;28;19970;-79
2021/05/10 08:24:21;;;;;;;;;;;21.50;55.60;;;;;;5036503;28;19917;-79
2021/05/10 08:26:53;;;;;;;;;;;21.50;55.60;;;;;;5039270;28;20003;-80
2021/05/10 08:29:19;;;;;;;;;;;21.50;55.60;;;;;;5052343;28;19921;-79
2021/05/10 08:31:45;;;;;;;;;;;21.50;55.60;;;;;;5029101;28;20056;-79
2021/05/10 08:34:12;;;;;;;;;;;21.50;55.60;;;;;;5030590;28;19913;-79
2021/05/10 08:36:42;;;;;;;;;;;21.50;55.50;;;;;;5058666;28;19920;-79
2021/05/10 08:39:10;;;;;;;;;;;21.60;55.40;;;;;;5053745;28;19913;-79
2021/05/10 08:41:39;;;;;;;;;;;21.60;55.50;;;;;;5035397;28;20016;-79
2021/05/10 08:44:08;;;;;;;;;;;21.60;55.40;;;;;;5036176;28;20388;-79
2021/05/10 08:46:39;;;;;;;;;;;21.60;55.30;;;;;;5040803;28;19919;-80
2021/05/10 08:49:05;;;;;;;;;;;21.70;55.20;;;;;;5049976;28;19955;-79
2021/05/10 08:51:41;;;;;;;;;;;21.60;55.20;;;;;;5050381;28;19923;-79
2021/05/10 08:54:19;;;;;;;;;;;21.70;55.20;;;;;;5052559;28;19917;-80
2021/05/10 08:56:50;;;;;;;;;;;21.70;55.10;;;;;;5018289;28;19920;-79
2021/05/10 08:59:17;;;;;;;;;;;21.70;55.10;;;;;;5051296;28;19913;-79
2021/05/10 09:02:00;;;;;;;;;;;21.70;55.10;;;;;;5031458;28;19920;-80
2021/05/10 09:04:39;;;;;;;;;;;21.70;55.10;;;;;;5045032;28;20011;-80
2021/05/10 09:07:23;;;;;;;;;;;21.70;55.00;;;;;;5049733;28;19913;-80
2021/05/10 09:10:00;;;;;;;;;;;21.80;54.90;;;;;;5028010;28;19921;-80
2021/05/10 09:12:45;;;;;;;;;;;21.80;54.90;;;;;;5037268;28;20374;-80
2021/05/10 09:15:25;;;;;;;;;;;21.80;54.80;;;;;;5047378;28;19921;-80
2021/05/10 09:18:04;;;;;;;;;;;21.80;54.80;;;;;;5032063;28;19924;-80
2021/05/10 09:20:32;;;;;;;;;;;21.80;54.80;;;;;;5028448;28;20256;-80
2021/05/10 09:22:59;;;;;;;;;;;21.80;54.70;;;;;;5042663;28;19921;-79
2021/05/10 09:25:29;;;;;;;;;;;21.80;54.70;;;;;;5031054;28;19917;-80
2021/05/10 09:28:18;;;;;;;;;;;21.80;54.70;;;;;;5034166;28;19979;-80
2021/05/10 09:30:49;;;;;;;;;;;21.80;54.60;;;;;;5022422;28;19920;-80
2021/05/10 09:33:18;;;;;;;;;;;21.80;54.60;;;;;;5022576;28;19920;-79
2021/05/10 09:35:43;;;;;;;;;;;21.80;54.60;;;;;;5028790;28;19963;-80
2021/05/10 09:38:09;;;;;;;;;;;21.80;54.60;;;;;;5029378;28;19913;-79
2021/05/10 09:40:42;;;;;;;;;;;21.80;54.50;;;;;;5031741;28;19913;-79
2021/05/10 09:43:08;;;;;;;;;;;21.80;54.50;;;;;;5045854;28;19921;-80
2021/05/10 09:45:42;;;;;;;;;;;21.80;54.30;;;;;;5032340;28;19917;-79
2021/05/10 09:48:10;;;;;;;;;;;21.90;54.50;;;;;;5030963;28;20397;-80
2021/05/10 09:50:40;;;;;;;;;;;21.90;54.60;;;;;;5043933;28;19913;-80
2021/05/10 09:53:07;;;;;;;;;;;21.90;54.60;;;;;;5029572;28;19913;-80
2021/05/10 09:56:03;;;;;;;;;;;21.90;54.70;;;;;;5045811;28;20337;-80
2021/05/10 09:58:42;;;;;;;;;;;21.90;54.70;;;;;;5032096;28;19928;-79
2021/05/10 10:01:13;;;;;;;;;;;21.90;54.70;;;;;;5041572;28;19913;-79
2021/05/10 10:03:40;;;;;;;;;;;21.90;54.80;;;;;;5029420;28;19923;-79
2021/05/10 10:06:07;;;;;;;;;;;22.00;54.80;;;;;;5023150;28;19956;-80
2021/05/10 10:08:33;;;;;;;;;;;22.00;54.90;;;;;;5028041;28;19925;-80
2021/05/10 10:10:58;;;;;;;;;;;22.00;54.80;;;;;;5029982;28;19913;-79
2021/05/10 10:13:29;;;;;;;;;;;22.00;54.80;;;;;;5048044;28;19963;-79
2021/05/10 10:16:00;;;;;;;;;;;21.90;54.80;;;;;;5026581;28;19913;-79
2021/05/10 10:18:31;;;;;;;;;;;22.00;54.80;;;;;;5047564;28;20274;-79
2021/05/10 10:20:57;;;;;;;;;;;22.00;54.80;;;;;;5035302;28;19940;-79
2021/05/10 10:23:24;;;;;;;;;;;21.90;54.70;;;;;;5033684;28;19967;-80
2021/05/10 10:25:51;;;;;;;;;;;22.00;54.70;;;;;;5033084;28;19931;-79
2021/05/10 10:28:22;;;;;;;;;;;22.00;54.60;;;;;;5034191;28;19912;-83
2021/05/10 10:30:58;;;;;;;;;;;22.00;54.50;;;;;;5044236;28;19917;-80
2021/05/10 10:33:32;;;;;;;;;;;22.00;54.50;;;;;;5031150;28;19920;-80
2021/05/10 10:35:58;;;;;;;;;;;22.10;54.40;;;;;;5033062;28;19960;-81
2021/05/10 10:38:33;;;;;;;;;;;22.10;54.30;;;;;;5051541;28;19912;-79
2021/05/10 10:41:14;;;;;;;;;;;22.10;54.30;;;;;;5047650;28;19921;-78
2021/05/10 10:43:40;;;;;;;;;;;22.10;54.20;;;;;;5042028;28;19912;-79
2021/05/10 10:46:14;;;;;;;;;;;22.10;54.30;;;;;;5055484;28;19916;-77
2021/05/10 10:48:40;;;;;;;;;;;22.10;54.40;;;;;;5050862;28;19913;-78
2021/05/10 10:51:07;;;;;;;;;;;22.10;54.50;;;;;;5032033;28;20008;-76
2021/05/10 10:53:42;;;;;;;;;;;22.10;54.50;;;;;;5037491;28;19936;-79
2021/05/10 10:56:08;;;;;;;;;;;22.10;54.60;;;;;;5030430;28;19920;-78
2021/05/10 10:58:34;;;;;;;;;;;22.20;54.80;;;;;;5047754;28;19908;-78
2021/05/10 11:01:07;;;;;;;;;;;22.20;54.90;;;;;;5050101;28;19920;-78
2021/05/10 11:03:34;;;;;;;;;;;22.20;55.00;;;;;;5029660;28;19921;-79
2021/05/10 11:06:01;;;;;;;;;;;22.20;55.10;;;;;;5043238;28;20007;-79
2021/05/10 11:08:45;;;;;;;;;;;22.20;55.20;;;;;;5049436;28;20012;-79
2021/05/10 11:11:26;;;;;;;;;;;22.20;55.40;;;;;;5046688;28;19917;-79
2021/05/10 11:13:52;;;;;;;;;;;22.20;55.40;;;;;;5044636;28;20293;-78
2021/05/10 11:16:37;;;;;;;;;;;22.20;54.60;;;;;;5040984;28;19913;-78
2021/05/10 11:19:05;;;;;;;;;;;22.20;54.80;;;;;;5044769;28;19927;-78
2021/05/10 11:21:31;;;;;;;;;;;22.20;54.80;;;;;;5033218;28;19932;-80
2021/05/10 11:23:57;;;;;;;;;;;22.20;54.70;;;;;;5053894;28;19924;-79
2021/05/10 11:26:40;;;;;;;;;;;22.20;54.30;;;;;;5053452;28;19924;-80
2021/05/10 11:29:06;;;;;;;;;;;22.20;54.10;;;;;;5053198;28;19956;-79
2021/05/10 11:31:35;;;;;;;;;;;22.20;54.00;;;;;;5054321;28;19913;-78
2021/05/10 11:34:01;;;;;;;;;;;22.20;54.00;;;;;;5032324;28;20011;-80
2021/05/10 11:36:28;;;;;;;;;;;22.20;53.90;;;;;;5041406;28;19913;-80
2021/05/10 11:38:58;;;;;;;;;;;22.30;53.90;;;;;;5054948;28;19978;-80
2021/05/10 11:41:39;;;;;;;;;;;22.30;53.90;;;;;;5042977;28;20361;-79
2021/05/10 11:44:06;;;;;;;;;;;22.30;53.90;;;;;;5029541;28;20334;-79
2021/05/10 11:46:42;;;;;;;;;;;22.30;53.90;;;;;;5055365;28;19913;-79
2021/05/10 11:49:10;;;;;;;;;;;22.30;54.00;;;;;;5036582;28;19967;-79
2021/05/10 11:51:39;;;;;;;;;;;22.30;54.00;;;;;;5054119;28;19919;-79
2021/05/10 11:54:05;;;;;;;;;;;22.30;54.10;;;;;;5054524;28;20011;-80
2021/05/10 11:56:40;;;;;;;;;;;22.30;54.10;;;;;;5032895;28;20003;-80
2021/05/10 12:01:50;;;;;;;;;;;22.30;54.20;;;;;;5055289;28;19920;-79
2021/05/10 12:04:18;;;;;;;;;;;22.30;54.20;;;;;;5054147;28;19913;-79
2021/05/10 12:06:44;;;;;;;;;;;22.30;54.30;;;;;;5053759;28;19919;-80
2021/05/10 12:09:28;;;;;;;;;;;22.30;54.20;;;;;;5053548;28;20286;-79
2021/05/10 12:11:54;;;;;;;;;;;22.20;54.20;;;;;;5056440;28;19921;-79
2021/05/10 12:14:19;;;;;;;;;;;22.20;54.20;;;;;;5051706;28;19959;-78
2021/05/10 12:17:03;;;;;;;;;;;22.20;54.20;;;;;;5041815;28;20374;-79
2021/05/10 12:19:48;;;;;;;;;;;22.30;54.20;;;;;;5046983;28;19912;-78
2021/05/10 12:22:14;;;;;;;;;;;22.30;54.40;;;;;;5052623;28;19940;-79
2021/05/10 12:24:54;;;;;;;;;;;22.30;54.50;;;;;;5034253;28;20365;-79
2021/05/10 12:27:20;;;;;;;;;;;22.30;54.50;;;;;;5051762;28;19957;-80
2021/05/10 12:29:46;;;;;;;;;;;22.30;54.50;;;;;;5036568;28;19920;-79
2021/05/10 12:32:12;;;;;;;;;;;22.30;54.50;;;;;;5052587;28;19913;-80
2021/05/10 12:34:37;;;;;;;;;;;22.30;54.60;;;;;;5041249;28;19920;-80
2021/05/10 12:37:03;;;;;;;;;;;22.30;54.80;;;;;;5051750;28;19912;-81
2021/05/10 12:39:29;;;;;;;;;;;22.30;54.70;;;;;;5037529;28;19913;-80
2021/05/10 12:42:14;;;;;;;;;;;22.30;54.90;;;;;;5039637;28;19913;-80
2021/05/10 12:44:39;;;;;;;;;;;22.30;54.90;;;;;;5034503;28;19949;-80
2021/05/10 12:47:05;;;;;;;;;;;22.30;54.90;;;;;;5039931;28;20339;-80
2021/05/10 12:49:30;;;;;;;;;;;22.30;54.90;;;;;;5035643;28;19913;-80
2021/05/10 12:51:56;;;;;;;;;;;22.30;54.80;;;;;;5051175;28;19921;-77
2021/05/10 12:54:22;;;;;;;;;;;22.30;54.90;;;;;;5038731;28;19986;-78
2021/05/10 12:56:47;;;;;;;;;;;22.30;54.90;;;;;;5037099;28;20003;-81
2021/05/10 12:59:13;;;;;;;;;;;22.40;54.90;;;;;;5033317;28;19920;-80
2021/05/10 13:01:39;;;;;;;;;;;22.40;54.90;;;;;;5051050;28;19919;-78
2021/05/10 13:04:06;;;;;;;;;;;22.40;55.00;;;;;;5034111;28;20401;-79
2021/05/10 13:06:31;;;;;;;;;;;22.40;55.00;;;;;;5029728;28;19921;-79
2021/05/10 13:08:57;;;;;;;;;;;22.40;54.90;;;;;;5058270;28;19924;-79
2021/05/10 13:11:41;;;;;;;;;;;22.40;54.90;;;;;;5035394;28;19912;-80
2021/05/10 13:14:23;;;;;;;;;;;22.50;54.80;;;;;;5042700;28;20076;-78
2021/05/10 13:19:37;;;;;;;;;;;22.50;54.60;;;;;;5052986;28;19917;-79
2021/05/10 13:31:09;;;;;;;;;;;22.40;55.10;;;;;;5053060;28;20381;-79
2021/05/10 13:36:37;;;;;;;;;;;22.40;55.10;;;;;;5051438;28;19912;-81
2021/05/10 13:39:05;;;;;;;;;;;22.40;55.10;;;;;;5042089;28;19913;-79
2021/05/10 13:41:49;;;;;;;;;;;22.50;55.10;;;;;;5033627;28;19912;-79
2021/05/10 13:44:15;;;;;;;;;;;22.50;55.10;;;;;;5051266;28;19924;-80
2021/05/10 13:46:41;;;;;;;;;;;22.50;55.00;;;;;;5050188;28;20273;-80
2021/05/10 13:49:07;;;;;;;;;;;22.50;55.00;;;;;;5050823;28;19966;-79
2021/05/10 13:51:33;;;;;;;;;;;22.50;55.00;;;;;;5052481;28;20318;-79
2021/05/10 13:53:59;;;;;;;;;;;22.50;55.00;;;;;;5052403;28;19917;-79
2021/05/10 13:56:25;;;;;;;;;;;22.50;54.90;;;;;;5034113;28;19912;-80
2021/05/10 13:58:51;;;;;;;;;;;22.60;54.90;;;;;;5036320;28;20366;-79
2021/05/10 14:01:16;;;;;;;;;;;22.60;54.90;;;;;;5033516;28;19920;-79
2021/05/10 14:03:44;;;;;;;;;;;22.60;54.90;;;;;;5035928;28;19916;-79
2021/05/10 14:06:10;;;;;;;;;;;22.60;54.80;;;;;;5036358;28;19917;-78
2021/05/10 14:08:36;;;;;;;;;;;22.60;54.80;;;;;;5030168;28;20418;-79
2021/05/10 14:11:03;;;;;;;;;;;22.60;54.70;;;;;;5039598;28;19914;-79
2021/05/10 14:13:28;;;;;;;;;;;22.70;54.60;;;;;;5048300;28;19909;-79
2021/05/10 14:15:54;;;;;;;;;;;22.70;54.60;;;;;;5028777;28;19974;-79
2021/05/10 14:18:24;;;;;;;;;;;22.70;54.50;;;;;;5019240;28;19909;-79
2021/05/10 14:23:34;;;;;;;;;;;22.70;54.50;;;;;;5051563;28;20066;-80
2021/05/10 14:25:59;;;;;;;;;;;22.70;54.50;;;;;;5036560;28;20004;-80
2021/05/10 14:28:25;;;;;;;;;;;22.70;54.50;;;;;;5052147;28;20014;-79
2021/05/10 14:30:51;;;;;;;;;;;22.70;54.50;;;;;;5043314;28;20269;-80
2021/05/10 14:33:16;;;;;;;;;;;22.70;54.40;;;;;;5052011;28;19912;-80
2021/05/10 14:35:42;;;;;;;;;;;22.70;54.50;;;;;;5051881;28;20022;-80
2021/05/10 14:38:07;;;;;;;;;;;22.80;54.40;;;;;;5034422;28;20373;-79
2021/05/10 14:40:33;;;;;;;;;;;22.70;54.30;;;;;;5050348;28;20369;-79
2021/05/10 14:42:58;;;;;;;;;;;22.70;54.40;;;;;;5048754;28;19963;-79
2021/05/10 14:45:24;;;;;;;;;;;22.70;54.40;;;;;;5051363;28;19924;-79
2021/05/10 14:47:49;;;;;;;;;;;22.80;54.30;;;;;;5021042;28;19959;-79
2021/05/10 14:50:15;;;;;;;;;;;22.70;54.30;;;;;;5036260;28;20374;-80
2021/05/10 14:52:40;;;;;;;;;;;22.70;54.30;;;;;;5035591;28;19908;-80